createdAt,value
2022-11-20T00:00:23.154Z,6.70
2022-11-20T00:02:50.221Z,12.20
2022-11-20T00:05:19.201Z,4.95
2022-11-20T00:10:13.415Z,8.88
2022-11-20T00:12:40.684Z,4.75
2022-11-20T00:15:08.125Z,4.68
2022-11-20T00:17:35.221Z,6.03
2022-11-20T00:20:02.341Z,5.20
2022-11-20T00:22:29.460Z,8.15
2022-11-20T00:24:58.280Z,5.60
2022-11-20T00:27:25.489Z,6.72
2022-11-20T00:29:52.612Z,4.95
2022-11-20T00:32:20.127Z,4.53
2022-11-20T00:34:47.256Z,5.80
2022-11-20T00:37:14.499Z,5.82
2022-11-20T00:39:41.622Z,5.22
2022-11-20T00:42:08.857Z,6.45
2022-11-20T00:44:36.242Z,4.97
2022-11-20T00:47:03.422Z,4.70
2022-11-20T00:49:30.638Z,5.18
2022-11-20T00:51:57.726Z,4.30
2022-11-20T00:54:24.840Z,6.25
2022-11-20T00:56:51.922Z,5.40
2022-11-20T00:59:19.309Z,5.75
2022-11-20T01:01:46.794Z,4.82
2022-11-20T01:04:13.914Z,7.47
2022-11-20T01:06:41.712Z,5.20
2022-11-20T01:09:11.108Z,4.38
2022-11-20T01:11:39.680Z,5.00
2022-11-20T01:14:08.054Z,4.82
2022-11-20T01:16:37.116Z,4.90
2022-11-20T01:19:08.841Z,5.63
2022-11-20T01:21:37.829Z,5.20
2022-11-20T01:26:33.911Z,4.47
2022-11-20T01:29:01.557Z,4.22
2022-11-20T01:31:30.240Z,5.30
2022-11-20T01:33:59.139Z,6.28
2022-11-20T01:36:29.104Z,6.00
2022-11-20T01:38:57.272Z,4.57
2022-11-20T01:41:43.846Z,5.15
2022-11-20T01:44:12.181Z,11.20
2022-11-20T01:46:40.744Z,6.22
2022-11-20T01:49:17.013Z,5.65
2022-11-20T01:51:47.206Z,5.60
2022-11-20T01:54:17.071Z,6.03
2022-11-20T01:56:45.972Z,4.03
2022-11-20T01:59:15.539Z,4.40
2022-11-20T02:01:42.886Z,5.72
2022-11-20T02:04:10.465Z,4.65
2022-11-20T02:06:49.777Z,5.13
2022-11-20T02:09:17.572Z,6.13
2022-11-20T02:11:44.703Z,4.22
2022-11-20T02:14:11.914Z,5.32
2022-11-20T02:16:40.969Z,5.28
2022-11-20T02:19:11.292Z,6.28
2022-11-20T02:21:43.904Z,4.72
2022-11-20T02:24:12.959Z,6.18
2022-11-20T02:29:07.141Z,4.13
2022-11-20T02:31:42.644Z,4.10
2022-11-20T02:34:09.772Z,4.10
2022-11-20T02:36:38.118Z,4.78
2022-11-20T02:39:06.406Z,4.30
2022-11-20T02:41:37.857Z,4.20
2022-11-20T02:44:05.660Z,4.40
2022-11-20T02:46:33.774Z,4.45
2022-11-20T02:49:00.873Z,5.03
2022-11-20T02:51:27.921Z,4.65
2022-11-20T02:53:55.108Z,5.05
2022-11-20T02:56:22.210Z,4.20
2022-11-20T02:58:49.441Z,4.30
2022-11-20T03:01:16.686Z,6.35
2022-11-20T03:03:43.914Z,4.70
2022-11-20T03:06:11.009Z,5.80
2022-11-20T03:08:38.113Z,4.30
2022-11-20T03:11:06.076Z,4.70
2022-11-20T03:13:33.273Z,4.80
2022-11-20T03:16:00.422Z,5.20
2022-11-20T03:18:29.845Z,4.93
2022-11-20T03:21:00.139Z,4.90
2022-11-20T03:23:27.250Z,4.07
2022-11-20T03:25:54.490Z,4.65
2022-11-20T03:28:21.692Z,4.10
2022-11-20T03:30:49.068Z,4.47
2022-11-20T03:33:16.374Z,4.57
2022-11-20T03:35:43.467Z,5.15
2022-11-20T03:38:10.556Z,5.40
2022-11-20T03:40:37.665Z,4.65
2022-11-20T03:43:04.755Z,4.15
2022-11-20T03:45:31.867Z,4.80
2022-11-20T03:47:59.011Z,4.97
2022-11-20T03:50:26.064Z,5.03
2022-11-20T03:52:53.177Z,5.00
2022-11-20T03:55:20.283Z,5.95
2022-11-20T03:57:47.346Z,4.22
2022-11-20T04:00:14.835Z,4.82
2022-11-20T04:02:41.890Z,5.88
2022-11-20T04:05:09.168Z,5.45
2022-11-20T04:07:36.531Z,4.03
2022-11-20T04:10:03.800Z,5.45
2022-11-20T04:12:33.409Z,4.30
2022-11-20T04:15:00.682Z,4.78
2022-11-20T04:17:27.737Z,4.07
2022-11-20T04:19:54.840Z,5.85
2022-11-20T04:22:21.950Z,4.25
2022-11-20T04:24:49.012Z,5.65
2022-11-20T04:27:16.088Z,4.68
2022-11-20T04:29:43.378Z,5.20
2022-11-20T04:32:10.440Z,5.43
2022-11-20T04:34:37.923Z,4.47
2022-11-20T04:37:05.175Z,5.00
2022-11-20T04:39:32.261Z,4.22
2022-11-20T04:42:18.014Z,5.00
2022-11-20T04:44:45.105Z,4.03
2022-11-20T04:47:12.183Z,5.53
2022-11-20T04:49:39.502Z,4.38
2022-11-20T04:52:06.686Z,6.45
2022-11-20T04:54:33.766Z,4.88
2022-11-20T04:57:00.891Z,4.30
2022-11-20T04:59:28.037Z,5.10
2022-11-20T05:01:55.647Z,5.22
2022-11-20T05:04:22.854Z,4.50
2022-11-20T05:06:51.911Z,5.28
2022-11-20T05:09:19.263Z,6.38
2022-11-20T05:11:50.403Z,4.50
2022-11-20T05:14:18.716Z,6.30
2022-11-20T05:16:45.879Z,4.82
2022-11-20T05:19:13.126Z,4.93
2022-11-20T05:21:40.179Z,6.68
2022-11-20T05:24:07.965Z,5.22
2022-11-20T05:26:35.107Z,4.28
2022-11-20T05:29:02.165Z,5.07
2022-11-20T05:31:29.292Z,4.90
2022-11-20T05:33:57.248Z,4.47
2022-11-20T05:36:24.424Z,5.10
2022-11-20T05:38:52.393Z,4.63
2022-11-20T05:41:22.279Z,5.32
2022-11-20T05:43:50.020Z,5.32
2022-11-20T05:46:18.511Z,3.92
2022-11-20T05:48:47.885Z,4.43
2022-11-20T05:51:16.901Z,4.65
2022-11-20T05:56:16.783Z,4.43
2022-11-20T05:58:44.181Z,4.35
2022-11-20T06:01:24.579Z,3.95
2022-11-20T06:03:52.180Z,4.38
2022-11-20T06:06:20.464Z,7.05
2022-11-20T06:08:47.972Z,5.25
2022-11-20T06:11:16.102Z,5.95
2022-11-20T06:13:43.332Z,5.07
2022-11-20T06:16:11.474Z,4.55
2022-11-20T06:18:38.839Z,5.13
2022-11-20T06:21:16.293Z,6.07
2022-11-20T06:23:43.755Z,4.50
2022-11-20T06:26:12.631Z,5.07
2022-11-20T06:28:40.047Z,4.63
2022-11-20T06:31:07.626Z,5.60
2022-11-20T06:33:37.382Z,5.75
2022-11-20T06:36:10.456Z,5.15
2022-11-20T06:38:38.414Z,4.00
2022-11-20T06:41:09.266Z,5.70
2022-11-20T06:43:36.394Z,3.88
2022-11-20T06:46:03.585Z,4.88
2022-11-20T06:48:31.064Z,4.53
2022-11-20T06:50:58.489Z,4.70
2022-11-20T06:53:26.012Z,4.13
2022-11-20T06:55:53.677Z,4.47
2022-11-20T06:58:20.807Z,4.63
2022-11-20T07:00:47.976Z,5.28
2022-11-20T07:03:15.338Z,5.65
2022-11-20T07:05:42.516Z,4.53
2022-11-20T07:08:09.854Z,5.05
2022-11-20T07:10:37.210Z,4.88
2022-11-20T07:13:04.301Z,6.18
2022-11-20T07:15:31.713Z,4.53
2022-11-20T07:18:01.984Z,4.35
2022-11-20T07:20:29.204Z,4.25
2022-11-20T07:22:56.849Z,4.70
2022-11-20T07:25:24.718Z,5.30
2022-11-20T07:27:51.880Z,5.43
2022-11-20T07:30:19.443Z,4.30
2022-11-20T07:32:52.389Z,4.57
2022-11-20T07:35:19.841Z,4.40
2022-11-20T07:37:48.147Z,4.10
2022-11-20T07:40:15.478Z,3.75
2022-11-20T07:42:52.942Z,4.55
2022-11-20T07:45:23.558Z,4.45
2022-11-20T07:47:51.187Z,4.63
2022-11-20T07:50:18.475Z,4.97
2022-11-20T07:52:45.841Z,4.55
2022-11-20T07:55:12.947Z,4.38
2022-11-20T07:57:40.197Z,3.92
2022-11-20T08:00:10.003Z,10.23
2022-11-20T08:02:40.922Z,5.70
2022-11-20T08:05:09.037Z,4.75
2022-11-20T08:07:39.954Z,7.57
2022-11-20T08:10:08.085Z,7.65
2022-11-20T08:12:53.991Z,6.10
2022-11-20T08:15:21.294Z,9.57
2022-11-20T08:18:08.337Z,7.28
2022-11-20T08:20:35.934Z,7.50
2022-11-20T08:23:04.098Z,6.93
2022-11-20T08:25:31.671Z,8.77
2022-11-20T08:28:00.601Z,7.47
2022-11-20T08:30:28.627Z,8.63
2022-11-20T08:32:56.261Z,11.38
2022-11-20T08:35:23.714Z,9.18
2022-11-20T08:37:51.014Z,8.60
2022-11-20T08:40:19.797Z,7.78
2022-11-20T08:45:14.114Z,8.55
2022-11-20T08:47:41.718Z,9.43
2022-11-20T08:50:09.150Z,9.35
2022-11-20T08:52:39.832Z,6.68
2022-11-20T08:55:09.018Z,9.95
2022-11-20T09:00:08.414Z,8.20
2022-11-20T09:02:36.283Z,8.18
2022-11-20T09:05:03.518Z,8.57
2022-11-20T09:07:31.582Z,17.35
2022-11-20T09:10:22.138Z,11.07
2022-11-20T09:12:45.883Z,10.63
2022-11-20T09:15:13.475Z,8.48
2022-11-20T09:17:40.673Z,9.40
2022-11-20T09:20:08.126Z,8.13
2022-11-20T09:22:35.339Z,9.45
2022-11-20T09:25:02.457Z,10.18
2022-11-20T09:27:29.574Z,8.32
2022-11-20T09:29:56.878Z,8.52
2022-11-20T09:32:23.972Z,11.52
2022-11-20T09:34:51.143Z,7.80
2022-11-20T09:37:18.391Z,8.35
2022-11-20T09:39:45.534Z,10.60
2022-11-20T09:42:16.077Z,8.05
2022-11-20T09:44:55.518Z,6.10
2022-11-20T09:47:34.391Z,8.60
2022-11-20T09:50:21.960Z,6.07
2022-11-20T09:52:57.361Z,8.32
2022-11-20T09:55:24.656Z,8.20
2022-11-20T09:57:53.198Z,7.65
2022-11-20T10:00:22.224Z,8.10
2022-11-20T10:05:35.280Z,5.53
2022-11-20T10:08:17.760Z,7.25
2022-11-20T10:10:54.588Z,6.57
2022-11-20T10:13:22.488Z,6.60
2022-11-20T10:15:56.643Z,6.13
2022-11-20T10:18:29.496Z,6.60
2022-11-20T10:21:11.303Z,7.05
2022-11-20T10:23:41.322Z,7.55
2022-11-20T10:26:24.457Z,8.05
2022-11-20T10:29:10.137Z,6.25
2022-11-20T10:31:52.826Z,7.30
2022-11-20T10:34:26.575Z,5.72
2022-11-20T10:37:00.241Z,5.95
2022-11-20T10:39:27.419Z,7.50
2022-11-20T10:41:54.826Z,7.30
2022-11-20T10:44:41.671Z,10.73
2022-11-20T10:47:18.787Z,7.63
2022-11-20T10:49:48.256Z,6.40
2022-11-20T10:52:24.493Z,7.47
2022-11-20T10:54:57.938Z,5.32
2022-11-20T10:57:43.653Z,8.55
2022-11-20T11:00:14.808Z,6.30
2022-11-20T11:02:48.254Z,5.97
2022-11-20T11:05:36.139Z,6.47
2022-11-20T11:08:06.422Z,7.10
2022-11-20T11:10:45.845Z,7.05
2022-11-20T11:13:23.075Z,9.30
2022-11-20T11:15:50.239Z,6.30
2022-11-20T11:18:31.214Z,7.90
2022-11-20T11:20:59.021Z,8.73
2022-11-20T11:23:46.542Z,6.97
2022-11-20T11:26:22.142Z,5.88
2022-11-20T11:28:59.680Z,6.53
2022-11-20T11:31:31.387Z,6.68
2022-11-20T11:34:07.564Z,6.30
2022-11-20T11:36:36.105Z,6.20
2022-11-20T11:39:04.842Z,7.57
2022-11-20T11:41:39.934Z,8.38
2022-11-20T11:46:55.423Z,6.30
2022-11-20T11:49:23.261Z,8.73
2022-11-20T11:52:02.727Z,7.78
2022-11-20T11:55:03.940Z,8.93
2022-11-20T11:57:34.368Z,7.15
2022-11-20T12:00:15.041Z,9.63
2022-11-20T12:02:50.974Z,9.45
2022-11-20T12:05:23.533Z,9.57
2022-11-20T12:08:08.137Z,11.27
2022-11-20T12:10:45.584Z,8.82
2022-11-20T12:13:12.754Z,8.07
2022-11-20T12:15:42.463Z,10.68
2022-11-20T12:18:16.182Z,9.18
2022-11-20T12:20:47.113Z,9.65
2022-11-20T12:23:28.693Z,13.23
2022-11-20T12:25:58.565Z,10.80
2022-11-20T12:28:28.731Z,8.00
2022-11-20T12:31:05.231Z,8.38
2022-11-20T12:33:52.593Z,7.57
2022-11-20T12:36:41.410Z,8.88
2022-11-20T12:39:23.938Z,9.68
2022-11-20T12:42:09.820Z,10.10
2022-11-20T12:45:12.238Z,10.63
2022-11-20T12:47:57.739Z,9.95
2022-11-20T12:50:32.552Z,8.48
2022-11-20T12:53:02.316Z,12.43
2022-11-20T12:55:38.493Z,8.35
2022-11-20T12:58:19.780Z,9.07
2022-11-20T13:03:14.056Z,10.85
2022-11-20T13:05:57.918Z,9.50
2022-11-20T13:08:26.754Z,10.30
2022-11-20T13:10:59.373Z,12.57
2022-11-20T13:13:26.412Z,11.75
2022-11-20T13:15:56.405Z,9.63
2022-11-20T13:18:23.722Z,12.25
2022-11-20T13:20:52.040Z,11.07
2022-11-20T13:23:29.228Z,13.88
2022-11-20T13:26:16.767Z,9.77
2022-11-20T13:28:44.215Z,11.52
2022-11-20T13:31:26.257Z,10.38
2022-11-20T13:33:55.297Z,12.15
2022-11-20T13:38:51.602Z,12.90
2022-11-20T13:41:36.435Z,15.60
2022-11-20T13:44:26.889Z,14.52
2022-11-20T13:46:54.702Z,13.80
2022-11-20T13:49:24.683Z,15.05
2022-11-20T13:51:53.056Z,12.88
2022-11-20T13:54:28.197Z,9.60
2022-11-20T13:56:59.478Z,14.30
2022-11-20T13:59:35.398Z,11.10
2022-11-20T14:02:03.086Z,7.75
2022-11-20T14:04:35.477Z,12.48
2022-11-20T14:07:02.713Z,10.88
2022-11-20T14:09:31.117Z,9.88
2022-11-20T14:11:58.866Z,8.90
2022-11-20T14:14:27.472Z,9.60
2022-11-20T14:17:06.265Z,12.35
2022-11-20T14:19:33.892Z,11.43
2022-11-20T14:22:17.569Z,12.55
2022-11-20T14:24:44.778Z,9.95
2022-11-20T14:27:24.473Z,11.55
2022-11-20T14:29:52.092Z,9.13
2022-11-20T14:32:19.858Z,12.90
2022-11-20T14:34:48.312Z,11.63
2022-11-20T14:37:23.347Z,10.90
2022-11-20T14:39:52.825Z,10.77
2022-11-20T14:42:27.163Z,8.18
2022-11-20T14:44:58.231Z,9.68
2022-11-20T14:47:29.776Z,8.82
2022-11-20T14:49:58.821Z,9.57
2022-11-20T14:55:02.683Z,7.97
2022-11-20T14:57:38.507Z,10.88
2022-11-20T15:00:14.694Z,10.35
2022-11-20T15:02:46.123Z,9.15
2022-11-20T15:05:15.119Z,10.23
2022-11-20T15:10:17.338Z,9.90
2022-11-20T15:12:55.043Z,8.88
2022-11-20T15:15:33.086Z,9.60
2022-11-20T15:18:00.545Z,8.88
2022-11-20T15:20:29.187Z,13.70
2022-11-20T15:23:04.747Z,9.10
2022-11-20T15:25:31.926Z,8.88
2022-11-20T15:28:01.160Z,7.15
2022-11-20T15:30:28.237Z,9.57
2022-11-20T15:32:55.448Z,8.43
2022-11-20T15:35:23.856Z,9.18
2022-11-20T15:37:51.114Z,8.25
2022-11-20T15:40:18.249Z,7.40
2022-11-20T15:43:08.324Z,8.75
2022-11-20T15:46:00.282Z,8.85
2022-11-20T15:48:36.785Z,10.25
2022-11-20T15:51:13.598Z,8.88
2022-11-20T15:53:41.696Z,7.55
2022-11-20T15:56:15.229Z,12.15
2022-11-20T15:58:43.149Z,12.15
2022-11-20T16:01:14.316Z,8.88
2022-11-20T16:03:41.562Z,10.80
2022-11-20T16:06:08.905Z,10.05
2022-11-20T16:08:36.328Z,10.93
2022-11-20T16:11:04.063Z,10.25
2022-11-20T16:13:50.897Z,8.60
2022-11-20T16:16:22.878Z,8.25
2022-11-20T16:18:50.349Z,11.50
2022-11-20T16:21:17.693Z,10.77
2022-11-20T16:23:44.825Z,9.20
2022-11-20T16:26:13.175Z,10.30
2022-11-20T16:28:40.655Z,8.70
2022-11-20T16:31:11.651Z,8.88
2022-11-20T16:33:38.803Z,10.63
2022-11-20T16:36:11.891Z,9.00
2022-11-20T16:38:39.142Z,9.98
2022-11-20T16:41:06.984Z,9.60
2022-11-20T16:43:34.244Z,10.05
2022-11-20T16:46:05.147Z,9.93
2022-11-20T16:48:32.291Z,10.93
2022-11-20T16:50:59.458Z,7.93
2022-11-20T16:53:26.610Z,8.10
2022-11-20T16:55:53.693Z,7.90
2022-11-20T16:58:23.153Z,8.35
2022-11-20T17:00:51.899Z,7.72
2022-11-20T17:03:21.093Z,9.77
2022-11-20T17:05:48.297Z,8.88
2022-11-20T17:08:15.387Z,8.85
2022-11-20T17:10:42.653Z,8.55
2022-11-20T17:13:09.726Z,8.90
2022-11-20T17:15:36.797Z,8.60
2022-11-20T17:18:03.923Z,9.38
2022-11-20T17:20:32.268Z,11.20
2022-11-20T17:22:59.710Z,13.07
2022-11-20T17:25:26.811Z,8.95
2022-11-20T17:27:55.149Z,11.38
2022-11-20T17:30:22.221Z,10.50
2022-11-20T17:32:49.326Z,14.15
2022-11-20T17:35:16.528Z,12.82
2022-11-20T17:37:43.592Z,16.40
2022-11-20T17:40:10.892Z,12.52
2022-11-20T17:42:38.004Z,14.25
2022-11-20T17:45:05.463Z,12.48
2022-11-20T17:47:32.628Z,9.65
2022-11-20T17:49:59.774Z,8.25
2022-11-20T17:52:27.196Z,7.22
2022-11-20T17:54:56.022Z,8.68
2022-11-20T17:57:43.004Z,8.52
2022-11-20T18:00:13.064Z,8.48
2022-11-20T18:02:40.217Z,7.80
2022-11-20T18:05:07.418Z,7.72
2022-11-20T18:07:40.181Z,12.20
2022-11-20T18:10:09.181Z,9.18
2022-11-20T18:12:36.361Z,8.77
2022-11-20T18:15:03.555Z,8.60
2022-11-20T18:17:30.714Z,8.00
2022-11-20T18:20:26.796Z,7.55
2022-11-20T18:22:45.145Z,7.95
2022-11-20T18:25:12.429Z,7.18
2022-11-20T18:27:43.100Z,9.77
2022-11-20T18:30:10.501Z,5.55
2022-11-20T18:32:38.265Z,7.82
2022-11-20T18:35:05.618Z,5.15
2022-11-20T18:37:33.111Z,8.77
2022-11-20T18:40:00.368Z,7.50
2022-11-20T18:42:46.194Z,8.30
2022-11-20T18:45:13.312Z,7.93
2022-11-20T18:47:40.627Z,10.48
2022-11-20T18:50:08.793Z,7.30
2022-11-20T18:52:39.311Z,8.43
2022-11-20T18:55:06.966Z,7.95
2022-11-20T18:57:34.221Z,6.95
2022-11-20T19:00:07.930Z,5.90
2022-11-20T19:02:42.771Z,6.38
2022-11-20T19:05:11.844Z,6.13
2022-11-20T19:07:38.990Z,5.78
2022-11-20T19:10:06.562Z,5.40
2022-11-20T19:12:33.660Z,7.65
2022-11-20T19:15:00.797Z,5.28
2022-11-20T19:17:27.865Z,6.90
2022-11-20T19:19:55.409Z,6.40
2022-11-20T19:22:22.686Z,7.00
2022-11-20T19:24:49.947Z,6.85
2022-11-20T19:27:17.248Z,7.45
2022-11-20T19:29:44.652Z,7.25
2022-11-20T19:32:11.826Z,5.93
2022-11-20T19:34:38.959Z,7.55
2022-11-20T19:37:06.133Z,5.45
2022-11-20T19:39:36.643Z,5.90
2022-11-20T19:42:05.752Z,7.25
2022-11-20T19:44:33.086Z,6.35
2022-11-20T19:47:00.723Z,6.18
2022-11-20T19:49:27.895Z,5.45
2022-11-20T19:51:55.153Z,6.72
2022-11-20T19:54:22.412Z,6.28
2022-11-20T19:56:50.498Z,5.65
2022-11-20T19:59:17.619Z,6.93
2022-11-20T20:01:44.950Z,7.07
2022-11-20T20:04:12.158Z,7.50
2022-11-20T20:06:39.971Z,6.43
2022-11-20T20:09:08.776Z,5.85
2022-11-20T20:11:36.674Z,6.30
2022-11-20T20:14:07.724Z,6.55
2022-11-20T20:16:35.426Z,5.95
2022-11-20T20:19:03.694Z,5.82
2022-11-20T20:21:31.654Z,6.22
2022-11-20T20:23:59.321Z,4.85
2022-11-20T20:26:27.648Z,5.47
2022-11-20T20:28:55.157Z,6.18
2022-11-20T20:31:25.602Z,6.57
2022-11-20T20:33:52.673Z,6.03
2022-11-20T20:36:20.941Z,5.90
2022-11-20T20:38:48.318Z,7.68
2022-11-20T20:41:15.709Z,5.55
2022-11-20T20:44:01.328Z,6.47
2022-11-20T20:46:28.397Z,7.78
2022-11-20T20:48:55.729Z,5.35
2022-11-20T20:51:23.372Z,5.63
2022-11-20T20:53:50.705Z,5.38
2022-11-20T20:56:18.628Z,6.88
2022-11-20T20:58:46.004Z,6.80
2022-11-20T21:01:15.159Z,5.95
2022-11-20T21:03:42.783Z,5.47
2022-11-20T21:06:10.678Z,10.27
2022-11-20T21:08:40.785Z,8.57
2022-11-20T21:11:10.389Z,8.32
2022-11-20T21:13:38.269Z,8.15
2022-11-20T21:16:05.879Z,7.15
2022-11-20T21:18:33.115Z,7.45
2022-11-20T21:21:19.431Z,5.57
2022-11-20T21:23:47.540Z,6.22
2022-11-20T21:26:15.823Z,6.03
2022-11-20T21:28:43.182Z,7.80
2022-11-20T21:31:12.027Z,8.20
2022-11-20T21:33:43.314Z,7.80
2022-11-20T21:36:11.293Z,7.57
2022-11-20T21:38:38.355Z,5.65
2022-11-20T21:41:06.288Z,6.60
2022-11-20T21:43:33.677Z,5.32
2022-11-20T21:46:01.752Z,11.05
2022-11-20T21:48:30.236Z,6.20
2022-11-20T21:50:57.523Z,6.10
2022-11-20T21:53:24.642Z,6.57
2022-11-20T21:55:55.626Z,5.55
2022-11-20T21:58:22.962Z,5.05
2022-11-20T22:00:50.329Z,6.35
2022-11-20T22:03:17.529Z,5.85
2022-11-20T22:05:44.720Z,7.22
2022-11-20T22:08:11.972Z,6.20
2022-11-20T22:10:39.087Z,12.15
2022-11-20T22:13:25.063Z,4.40
2022-11-20T22:16:00.629Z,6.32
2022-11-20T22:18:28.401Z,5.70
2022-11-20T22:20:55.478Z,7.10
2022-11-20T22:23:22.581Z,7.60
2022-11-20T22:25:49.763Z,5.72
2022-11-20T22:28:16.843Z,6.38
2022-11-20T22:30:43.905Z,5.93
2022-11-20T22:33:13.902Z,7.57
2022-11-20T22:35:41.193Z,5.20
2022-11-20T22:38:08.341Z,6.97
2022-11-20T22:40:35.441Z,4.28
2022-11-20T22:43:02.585Z,5.22
2022-11-20T22:45:32.865Z,5.95
2022-11-20T22:47:59.914Z,5.28
2022-11-20T22:50:27.001Z,6.95
2022-11-20T22:52:54.102Z,7.07
2022-11-20T22:55:21.257Z,5.80
2022-11-20T22:57:48.545Z,5.28
2022-11-20T23:00:15.926Z,4.72
2022-11-20T23:02:46.617Z,6.10
2022-11-20T23:05:13.857Z,4.95
2022-11-20T23:07:41.302Z,5.50
2022-11-20T23:10:08.754Z,4.32
2022-11-20T23:12:36.026Z,7.30
2022-11-20T23:15:03.140Z,5.57
2022-11-20T23:17:30.651Z,4.82
2022-11-20T23:19:57.794Z,3.92
2022-11-20T23:22:24.870Z,5.97
2022-11-20T23:24:51.934Z,4.40
2022-11-20T23:27:19.827Z,6.22
2022-11-20T23:29:47.130Z,4.30
2022-11-20T23:32:14.270Z,4.28
2022-11-20T23:34:41.312Z,4.15
2022-11-20T23:37:08.405Z,4.10
2022-11-20T23:39:35.604Z,6.40
2022-11-20T23:42:02.748Z,4.70
2022-11-20T23:44:29.974Z,3.70
2022-11-20T23:46:57.405Z,5.53
2022-11-20T23:49:24.495Z,5.03
2022-11-20T23:51:51.576Z,5.32
2022-11-20T23:54:18.726Z,6.55
2022-11-20T23:56:45.835Z,5.28
2022-11-20T23:59:12.926Z,4.88
